createdAt,value
2018-09-20T00:00:18.516Z,19.60
2018-09-20T00:02:47.508Z,19.50
2018-09-20T00:05:16.393Z,19.50
2018-09-20T00:07:45.252Z,19.50
2018-09-20T00:10:14.365Z,19.50
2018-09-20T00:12:43.461Z,19.40
2018-09-20T00:15:28.742Z,19.40
2018-09-20T00:17:57.858Z,19.40
2018-09-20T00:20:26.844Z,19.40
2018-09-20T00:22:55.820Z,19.40
2018-09-20T00:25:24.630Z,19.30
2018-09-20T00:27:53.447Z,19.30
2018-09-20T00:30:22.595Z,19.30
2018-09-20T00:32:51.608Z,19.20
2018-09-20T00:35:20.598Z,19.20
2018-09-20T00:37:49.479Z,19.20
2018-09-20T00:40:18.380Z,19.20
2018-09-20T00:42:47.787Z,19.10
2018-09-20T00:45:17.055Z,19.10
2018-09-20T00:47:46.361Z,19.10
2018-09-20T00:50:15.826Z,19.10
2018-09-20T00:52:45.309Z,19.10
2018-09-20T00:55:14.517Z,19.10
2018-09-20T00:57:44.044Z,19.10
2018-09-20T01:00:13.464Z,19.00
2018-09-20T01:02:42.503Z,19.10
2018-09-20T01:05:11.632Z,19.00
2018-09-20T01:07:40.733Z,19.00
2018-09-20T01:10:09.936Z,19.00
2018-09-20T01:12:39.252Z,19.00
2018-09-20T01:15:08.852Z,18.90
2018-09-20T01:17:38.079Z,18.90
2018-09-20T01:20:07.706Z,18.80
2018-09-20T01:22:37.075Z,18.80
2018-09-20T01:25:06.306Z,18.80
2018-09-20T01:27:35.434Z,18.80
2018-09-20T01:30:04.665Z,18.80
2018-09-20T01:32:34.067Z,18.70
2018-09-20T01:35:03.058Z,18.70
2018-09-20T01:37:32.507Z,18.80
2018-09-20T01:40:01.571Z,18.70
2018-09-20T01:42:30.907Z,18.70
2018-09-20T01:45:00.023Z,18.70
2018-09-20T01:47:29.078Z,18.70
2018-09-20T01:49:58.346Z,18.70
2018-09-20T01:52:31.346Z,18.70
2018-09-20T01:55:00.438Z,18.70
2018-09-20T01:57:29.706Z,18.70
2018-09-20T01:59:58.943Z,18.60
2018-09-20T02:02:28.212Z,18.60
2018-09-20T02:07:53.450Z,18.60
2018-09-20T02:10:22.620Z,18.60
2018-09-20T02:12:51.780Z,18.60
2018-09-20T02:15:20.989Z,18.50
2018-09-20T02:17:50.326Z,18.50
2018-09-20T02:20:19.618Z,18.50
2018-09-20T02:22:49.006Z,18.50
2018-09-20T02:25:18.087Z,18.40
2018-09-20T02:27:47.372Z,18.40
2018-09-20T02:30:16.609Z,18.40
2018-09-20T02:32:45.878Z,18.40
2018-09-20T02:35:15.067Z,18.40
2018-09-20T02:37:44.591Z,18.30
2018-09-20T02:40:13.593Z,18.30
2018-09-20T02:42:42.709Z,18.30
2018-09-20T02:45:12.343Z,18.30
2018-09-20T02:47:41.523Z,18.30
2018-09-20T02:50:10.666Z,18.30
2018-09-20T02:52:39.706Z,18.30
2018-09-20T02:55:08.995Z,18.20
2018-09-20T02:57:38.122Z,18.20
2018-09-20T03:00:07.446Z,18.20
2018-09-20T03:02:36.653Z,18.20
2018-09-20T03:05:05.853Z,18.20
2018-09-20T03:07:35.006Z,18.20
2018-09-20T03:10:04.100Z,18.10
2018-09-20T03:12:34.553Z,18.10
2018-09-20T03:15:03.398Z,18.10
2018-09-20T03:17:33.813Z,18.00
2018-09-20T03:20:02.795Z,18.00
2018-09-20T03:22:31.921Z,18.00
2018-09-20T03:25:00.911Z,17.90
2018-09-20T03:27:29.840Z,17.90
2018-09-20T03:29:58.921Z,17.90
2018-09-20T03:32:28.018Z,17.90
2018-09-20T03:34:57.072Z,17.90
2018-09-20T03:37:25.937Z,17.90
2018-09-20T03:43:00.476Z,17.80
2018-09-20T03:45:28.820Z,17.80
2018-09-20T03:47:57.128Z,17.80
2018-09-20T03:50:25.476Z,17.80
2018-09-20T03:52:53.751Z,17.80
2018-09-20T03:55:22.742Z,17.70
2018-09-20T03:57:52.278Z,17.70
2018-09-20T04:00:20.533Z,17.70
2018-09-20T04:02:48.926Z,17.70
2018-09-20T04:05:17.211Z,17.70
2018-09-20T04:07:45.577Z,17.70
2018-09-20T04:10:13.906Z,17.70
2018-09-20T04:12:42.292Z,17.70
2018-09-20T04:15:10.588Z,17.60
2018-09-20T04:17:38.881Z,17.60
2018-09-20T04:20:07.661Z,17.50
2018-09-20T04:22:36.087Z,17.50
2018-09-20T04:25:04.456Z,17.50
2018-09-20T04:27:32.841Z,17.50
2018-09-20T04:30:01.171Z,17.50
2018-09-20T04:32:29.485Z,17.40
2018-09-20T04:34:57.873Z,17.40
2018-09-20T04:37:26.179Z,17.40
2018-09-20T04:39:54.548Z,17.40
2018-09-20T04:42:22.948Z,17.40
2018-09-20T04:44:51.254Z,17.40
2018-09-20T04:47:19.581Z,17.40
2018-09-20T04:49:47.932Z,17.40
2018-09-20T04:52:16.321Z,17.40
2018-09-20T04:54:44.874Z,17.30
2018-09-20T04:57:13.213Z,17.30
2018-09-20T04:59:41.561Z,17.30
2018-09-20T05:02:09.926Z,17.20
2018-09-20T05:04:38.243Z,17.30
2018-09-20T05:07:07.012Z,17.30
2018-09-20T05:09:35.375Z,17.40
2018-09-20T05:12:03.697Z,17.40
2018-09-20T05:14:32.009Z,17.30
2018-09-20T05:17:00.362Z,17.30
2018-09-20T05:19:28.717Z,17.30
2018-09-20T05:21:57.020Z,17.30
2018-09-20T05:24:27.461Z,17.20
2018-09-20T05:26:55.816Z,17.20
2018-09-20T05:29:24.157Z,17.20
2018-09-20T05:31:52.545Z,17.20
2018-09-20T05:34:21.536Z,17.20
2018-09-20T05:36:49.858Z,17.20
2018-09-20T05:39:18.149Z,17.20
2018-09-20T05:41:46.489Z,17.20
2018-09-20T05:44:15.139Z,17.20
2018-09-20T05:46:43.900Z,17.20
2018-09-20T05:49:43.530Z,17.20
2018-09-20T05:52:12.598Z,17.20
2018-09-20T05:54:41.615Z,17.20
2018-09-20T05:57:10.620Z,17.30
2018-09-20T05:59:40.620Z,17.30
2018-09-20T06:02:09.964Z,17.30
2018-09-20T06:04:38.992Z,17.30
2018-09-20T06:07:07.976Z,17.30
2018-09-20T06:09:36.996Z,17.40
2018-09-20T06:12:06.011Z,17.50
2018-09-20T06:14:35.128Z,17.60
2018-09-20T06:17:04.185Z,17.60
2018-09-20T06:19:33.240Z,17.70
2018-09-20T06:22:02.360Z,17.70
2018-09-20T06:24:31.439Z,17.80
2018-09-20T06:27:00.332Z,17.90
2018-09-20T06:29:29.245Z,18.00
2018-09-20T06:31:58.369Z,18.20
2018-09-20T06:34:27.576Z,18.30
2018-09-20T06:36:56.989Z,18.40
2018-09-20T06:39:26.149Z,18.50
2018-09-20T06:41:55.249Z,18.70
2018-09-20T06:44:24.550Z,18.90
2018-09-20T06:46:53.450Z,18.90
2018-09-20T06:49:22.649Z,18.90
2018-09-20T06:51:52.053Z,19.10
2018-09-20T06:54:20.945Z,19.20
2018-09-20T06:56:49.973Z,19.50
2018-09-20T06:59:18.937Z,19.60
2018-09-20T07:01:48.052Z,19.80
2018-09-20T07:04:17.144Z,19.90
2018-09-20T07:06:46.327Z,20.00
2018-09-20T07:09:16.565Z,20.40
2018-09-20T07:11:46.189Z,20.60
2018-09-20T07:14:15.527Z,20.70
2018-09-20T07:16:44.987Z,20.70
2018-09-20T07:19:14.077Z,20.80
2018-09-20T07:21:43.497Z,20.70
2018-09-20T07:24:12.609Z,20.80
2018-09-20T07:26:41.763Z,20.80
2018-09-20T07:29:11.083Z,21.00
2018-09-20T07:31:40.691Z,21.20
2018-09-20T07:34:10.022Z,21.30
2018-09-20T07:36:39.229Z,21.30
2018-09-20T07:39:09.637Z,21.20
2018-09-20T07:41:39.274Z,21.00
2018-09-20T07:44:08.515Z,21.20
2018-09-20T07:46:37.741Z,21.40
2018-09-20T07:49:06.902Z,21.50
2018-09-20T07:51:36.244Z,21.30
2018-09-20T07:54:05.511Z,21.40
2018-09-20T07:56:34.914Z,21.30
2018-09-20T07:59:04.268Z,21.20
2018-09-20T08:01:33.862Z,21.40
2018-09-20T08:04:02.941Z,21.50
2018-09-20T08:06:32.117Z,21.60
2018-09-20T08:09:01.403Z,21.70
2018-09-20T08:11:30.837Z,21.70
2018-09-20T08:14:00.029Z,21.60
2018-09-20T08:16:29.168Z,21.70
2018-09-20T08:18:58.197Z,21.70
2018-09-20T08:21:27.672Z,21.70
2018-09-20T08:23:57.100Z,21.80
2018-09-20T08:26:26.348Z,22.00
2018-09-20T08:28:55.651Z,22.10
2018-09-20T08:31:24.925Z,22.10
2018-09-20T08:33:54.181Z,22.20
2018-09-20T08:36:23.489Z,22.30
2018-09-20T08:38:52.720Z,22.30
2018-09-20T08:41:23.046Z,22.30
2018-09-20T08:43:52.590Z,22.20
2018-09-20T08:46:21.782Z,22.30
2018-09-20T08:48:51.024Z,22.40
2018-09-20T08:51:20.026Z,22.50
2018-09-20T08:53:48.928Z,22.70
2018-09-20T08:56:18.000Z,22.90
2018-09-20T08:58:47.068Z,22.90
2018-09-20T09:01:16.133Z,22.80
2018-09-20T09:03:45.085Z,22.80
2018-09-20T09:06:14.081Z,23.00
2018-09-20T09:08:48.900Z,23.10
2018-09-20T09:11:17.920Z,23.20
2018-09-20T09:13:46.949Z,23.50
2018-09-20T09:16:16.024Z,23.50
2018-09-20T09:18:45.631Z,23.50
2018-09-20T09:21:14.882Z,23.50
2018-09-20T09:23:44.057Z,23.90
2018-09-20T09:26:13.211Z,24.10
2018-09-20T09:28:42.399Z,24.30
2018-09-20T09:31:11.632Z,24.90
2018-09-20T09:33:40.746Z,25.00
2018-09-20T09:36:09.879Z,25.00
2018-09-20T09:38:39.222Z,25.10
2018-09-20T09:41:08.367Z,24.90
2018-09-20T09:43:37.800Z,25.00
2018-09-20T09:46:07.094Z,25.10
2018-09-20T09:48:36.713Z,25.30
2018-09-20T09:51:05.925Z,25.80
2018-09-20T09:53:35.413Z,26.50
2018-09-20T09:56:04.625Z,26.70
2018-09-20T09:58:33.802Z,26.90
2018-09-20T10:01:02.922Z,26.80
2018-09-20T10:03:32.019Z,26.70
2018-09-20T10:06:01.401Z,26.70
2018-09-20T10:08:30.940Z,26.50
2018-09-20T10:11:00.202Z,26.70
2018-09-20T10:13:29.423Z,26.70
2018-09-20T10:15:58.572Z,26.60
2018-09-20T10:18:27.901Z,27.00
2018-09-20T10:20:57.106Z,27.00
2018-09-20T10:23:26.219Z,27.10
2018-09-20T10:25:55.469Z,27.40
2018-09-20T10:28:24.759Z,27.40
2018-09-20T10:30:54.238Z,27.30
2018-09-20T10:33:23.321Z,27.40
2018-09-20T10:35:52.435Z,27.70
2018-09-20T10:38:21.554Z,27.90
2018-09-20T10:40:50.584Z,27.90
2018-09-20T10:43:19.953Z,27.70
2018-09-20T10:45:50.106Z,27.50
2018-09-20T10:48:19.235Z,27.50
2018-09-20T10:50:48.495Z,27.40
2018-09-20T10:53:18.014Z,27.60
2018-09-20T10:55:47.143Z,27.60
2018-09-20T10:58:16.239Z,27.40
2018-09-20T11:00:45.602Z,27.40
2018-09-20T11:03:14.890Z,27.40
2018-09-20T11:05:44.202Z,27.50
2018-09-20T11:08:13.441Z,27.40
2018-09-20T11:10:42.531Z,27.60
2018-09-20T11:13:11.410Z,27.60
2018-09-20T11:15:40.746Z,27.60
2018-09-20T11:18:10.233Z,27.60
2018-09-20T11:20:39.338Z,27.70
2018-09-20T11:23:08.696Z,27.60
2018-09-20T11:25:37.980Z,27.80
2018-09-20T11:28:07.245Z,27.90
2018-09-20T11:30:36.281Z,27.90
2018-09-20T11:33:05.371Z,27.90
2018-09-20T11:35:34.647Z,27.90
2018-09-20T11:38:04.040Z,28.10
2018-09-20T11:40:33.164Z,28.10
2018-09-20T11:43:02.095Z,28.20
2018-09-20T11:45:31.170Z,28.10
2018-09-20T11:48:00.563Z,28.00
2018-09-20T11:50:29.816Z,27.90
2018-09-20T11:52:58.751Z,27.80
2018-09-20T11:55:27.661Z,27.60
2018-09-20T11:57:56.642Z,27.50
2018-09-20T12:00:25.645Z,27.50
2018-09-20T12:02:54.634Z,27.70
2018-09-20T12:05:23.746Z,27.70
2018-09-20T12:07:52.954Z,27.90
2018-09-20T12:10:21.867Z,27.80
2018-09-20T12:12:51.063Z,28.00
2018-09-20T12:15:20.180Z,28.10
2018-09-20T12:17:49.298Z,28.00
2018-09-20T12:20:18.494Z,28.10
2018-09-20T12:22:47.548Z,28.30
2018-09-20T12:25:16.928Z,28.50
2018-09-20T12:27:46.238Z,28.70
2018-09-20T12:30:15.486Z,28.90
2018-09-20T12:32:48.255Z,28.90
2018-09-20T12:35:17.541Z,29.00
2018-09-20T12:37:46.809Z,29.20
2018-09-20T12:40:16.230Z,29.40
2018-09-20T12:42:45.524Z,29.30
2018-09-20T12:45:14.521Z,29.80
2018-09-20T12:47:43.849Z,29.90
2018-09-20T12:50:13.194Z,29.90
2018-09-20T12:52:42.223Z,29.90
2018-09-20T12:55:11.349Z,29.90
2018-09-20T12:57:40.511Z,29.90
2018-09-20T13:00:10.690Z,29.90
2018-09-20T13:02:39.622Z,30.20
2018-09-20T13:05:08.815Z,30.00
2018-09-20T13:07:37.967Z,30.10
2018-09-20T13:10:07.239Z,30.10
2018-09-20T13:12:36.480Z,30.10
2018-09-20T13:15:06.207Z,30.20
2018-09-20T13:17:35.633Z,30.50
2018-09-20T13:20:05.180Z,31.10
2018-09-20T13:22:34.452Z,31.40
2018-09-20T13:25:05.569Z,31.10
2018-09-20T13:27:34.590Z,31.00
2018-09-20T13:30:03.669Z,30.90
2018-09-20T13:32:32.760Z,30.70
2018-09-20T13:35:01.872Z,30.60
2018-09-20T13:37:30.914Z,30.60
2018-09-20T13:39:59.987Z,30.50
2018-09-20T13:42:29.332Z,30.90
2018-09-20T13:44:58.427Z,31.20
2018-09-20T13:47:27.408Z,31.20
2018-09-20T13:49:56.516Z,31.20
2018-09-20T13:52:25.514Z,31.20
2018-09-20T13:54:54.608Z,31.40
2018-09-20T13:57:24.902Z,31.40
2018-09-20T13:59:54.097Z,31.40
2018-09-20T14:02:23.450Z,31.50
2018-09-20T14:04:52.401Z,31.30
2018-09-20T14:07:21.429Z,31.30
2018-09-20T14:09:50.544Z,31.60
2018-09-20T14:12:19.435Z,31.70
2018-09-20T14:14:48.280Z,31.60
2018-09-20T14:17:17.526Z,31.60
2018-09-20T14:19:46.611Z,31.90
2018-09-20T14:22:15.620Z,31.80
2018-09-20T14:24:44.817Z,31.60
2018-09-20T14:27:13.781Z,31.30
2018-09-20T14:29:57.921Z,31.30
2018-09-20T14:32:28.038Z,31.30
2018-09-20T14:34:56.936Z,31.30
2018-09-20T14:37:25.754Z,31.50
2018-09-20T14:39:54.657Z,31.60
2018-09-20T14:42:24.137Z,31.60
2018-09-20T14:44:53.022Z,31.50
2018-09-20T14:47:22.174Z,31.30
2018-09-20T14:49:57.151Z,31.30
2018-09-20T14:52:26.835Z,31.40
2018-09-20T14:54:55.825Z,31.40
2018-09-20T14:57:24.824Z,31.50
2018-09-20T14:59:53.936Z,31.60
2018-09-20T15:02:23.083Z,31.50
2018-09-20T15:04:52.270Z,31.40
2018-09-20T15:07:21.331Z,31.10
2018-09-20T15:09:50.230Z,31.00
2018-09-20T15:12:19.328Z,31.30
2018-09-20T15:14:49.684Z,31.50
2018-09-20T15:17:18.943Z,31.70
2018-09-20T15:19:48.131Z,31.70
2018-09-20T15:22:17.372Z,31.80
2018-09-20T15:24:46.446Z,31.90
2018-09-20T15:27:15.623Z,32.00
2018-09-20T15:29:44.710Z,31.70
2018-09-20T15:32:14.147Z,31.80
2018-09-20T15:34:43.214Z,31.80
2018-09-20T15:37:12.256Z,31.70
2018-09-20T15:39:41.450Z,31.70
2018-09-20T15:42:10.490Z,31.60
2018-09-20T15:44:39.418Z,31.70
2018-09-20T15:47:09.878Z,31.60
2018-09-20T15:49:38.996Z,31.70
2018-09-20T15:52:08.228Z,31.70
2018-09-20T15:54:37.232Z,31.70
2018-09-20T15:57:06.433Z,31.70
2018-09-20T15:59:35.526Z,31.80
2018-09-20T16:02:04.395Z,31.80
2018-09-20T16:04:33.412Z,31.90
2018-09-20T16:07:02.414Z,31.80
2018-09-20T16:09:50.951Z,31.70
2018-09-20T16:12:19.961Z,31.60
2018-09-20T16:14:49.051Z,31.30
2018-09-20T16:17:18.162Z,31.20
2018-09-20T16:19:47.265Z,30.90
2018-09-20T16:22:16.138Z,30.90
2018-09-20T16:24:44.933Z,30.70
2018-09-20T16:27:14.097Z,30.50
2018-09-20T16:30:56.217Z,30.40
2018-09-20T16:35:42.487Z,30.10
2018-09-20T16:38:18.100Z,29.80
2018-09-20T16:40:51.187Z,29.70
2018-09-20T16:43:20.507Z,29.60
2018-09-20T16:45:49.793Z,29.50
2018-09-20T16:48:19.242Z,29.30
2018-09-20T16:50:48.571Z,29.10
2018-09-20T16:53:18.053Z,29.00
2018-09-20T16:55:47.928Z,28.80
2018-09-20T16:58:18.137Z,28.60
2018-09-20T17:00:47.222Z,28.50
2018-09-20T17:03:16.327Z,28.40
2018-09-20T17:05:48.647Z,28.30
2018-09-20T17:08:17.648Z,28.20
2018-09-20T17:10:46.893Z,28.00
2018-09-20T17:13:16.334Z,27.90
2018-09-20T17:15:45.221Z,27.80
2018-09-20T17:18:14.214Z,27.60
2018-09-20T17:20:43.111Z,27.50
2018-09-20T17:23:12.124Z,27.40
2018-09-20T17:25:40.855Z,27.30
2018-09-20T17:28:09.788Z,27.20
2018-09-20T17:30:38.779Z,27.00
2018-09-20T17:33:07.823Z,26.90
2018-09-20T17:35:37.523Z,26.80
2018-09-20T17:38:08.306Z,26.60
2018-09-20T17:40:38.546Z,26.50
2018-09-20T17:43:10.034Z,26.40
2018-09-20T17:45:39.235Z,26.30
2018-09-20T17:48:10.363Z,26.30
2018-09-20T17:50:39.375Z,26.10
2018-09-20T17:53:08.737Z,26.00
2018-09-20T17:55:37.995Z,26.00
2018-09-20T17:58:07.719Z,25.80
2018-09-20T18:00:37.638Z,25.80
2018-09-20T18:04:08.657Z,25.60
2018-09-20T18:07:23.833Z,25.50
2018-09-20T18:09:52.936Z,25.40
2018-09-20T18:12:21.650Z,25.30
2018-09-20T18:14:50.449Z,25.20
2018-09-20T18:17:19.487Z,25.10
2018-09-20T18:19:48.413Z,25.00
2018-09-20T18:22:18.395Z,25.00
2018-09-20T18:24:48.353Z,24.90
2018-09-20T18:27:27.728Z,24.70
2018-09-20T18:29:57.014Z,24.70
2018-09-20T18:32:26.379Z,24.60
2018-09-20T18:34:55.072Z,24.50
2018-09-20T18:37:28.203Z,24.40
2018-09-20T18:39:58.308Z,24.30
2018-09-20T18:42:27.255Z,24.20
2018-09-20T18:44:56.049Z,24.10
2018-09-20T18:47:24.944Z,24.10
2018-09-20T18:49:53.895Z,24.00
2018-09-20T18:52:22.759Z,23.90
2018-09-20T18:54:51.645Z,23.80
2018-09-20T18:57:24.244Z,23.80
2018-09-20T18:59:53.019Z,23.70
2018-09-20T19:02:21.738Z,23.70
2018-09-20T19:04:50.491Z,23.60
2018-09-20T19:07:20.999Z,23.50
2018-09-20T19:09:49.770Z,23.40
2018-09-20T19:12:18.543Z,23.40
2018-09-20T19:14:47.569Z,23.30
2018-09-20T19:17:16.371Z,23.20
2018-09-20T19:19:45.111Z,23.10
2018-09-20T19:22:13.972Z,23.10
2018-09-20T19:24:42.697Z,23.00
2018-09-20T19:27:14.830Z,22.90
2018-09-20T19:29:43.598Z,22.90
2018-09-20T19:32:12.294Z,22.80
2018-09-20T19:34:40.980Z,22.70
2018-09-20T19:37:09.693Z,22.70
2018-09-20T19:39:38.343Z,22.60
2018-09-20T19:42:07.493Z,22.60
2018-09-20T19:44:36.254Z,22.50
2018-09-20T19:47:05.632Z,22.40
2018-09-20T19:49:34.720Z,22.40
2018-09-20T19:52:03.928Z,22.30
2018-09-20T19:54:32.908Z,22.30
2018-09-20T19:57:01.963Z,22.20
2018-09-20T19:59:31.109Z,22.10
2018-09-20T20:02:00.212Z,22.10
2018-09-20T20:04:29.156Z,22.10
2018-09-20T20:07:02.332Z,22.00
2018-09-20T20:09:31.262Z,21.90
2018-09-20T20:12:00.453Z,21.90
2018-09-20T20:14:32.753Z,21.80
2018-09-20T20:17:01.948Z,21.80
2018-09-20T20:19:30.751Z,21.70
2018-09-20T20:21:59.628Z,21.70
2018-09-20T20:24:28.273Z,21.60
2018-09-20T20:26:58.119Z,21.60
2018-09-20T20:29:26.784Z,21.50
2018-09-20T20:31:55.448Z,21.50
2018-09-20T20:34:24.645Z,21.40
2018-09-20T20:36:53.650Z,21.40
2018-09-20T20:39:22.735Z,21.40
2018-09-20T20:41:52.020Z,21.30
2018-09-20T20:44:21.127Z,21.30
2018-09-20T20:46:50.416Z,21.30
2018-09-20T20:49:19.530Z,21.20
2018-09-20T20:51:48.614Z,21.20
2018-09-20T20:54:17.573Z,21.10
2018-09-20T20:56:46.837Z,21.10
2018-09-20T20:59:16.248Z,21.00
2018-09-20T21:01:45.328Z,21.00
2018-09-20T21:04:14.774Z,21.00
2018-09-20T21:06:43.835Z,20.90
2018-09-20T21:09:13.157Z,20.80
2018-09-20T21:11:47.178Z,20.80
2018-09-20T21:14:16.800Z,20.70
2018-09-20T21:16:45.921Z,20.70
2018-09-20T21:19:15.126Z,20.60
2018-09-20T21:21:44.409Z,20.60
2018-09-20T21:24:13.886Z,20.60
2018-09-20T21:26:43.131Z,20.60
2018-09-20T21:29:12.241Z,20.50
2018-09-20T21:31:41.510Z,20.50
2018-09-20T21:34:10.863Z,20.40
2018-09-20T21:36:41.570Z,20.40
2018-09-20T21:39:12.151Z,20.30
2018-09-20T21:41:41.832Z,20.30
2018-09-20T21:44:10.987Z,20.30
2018-09-20T21:46:40.462Z,20.20
2018-09-20T21:49:09.556Z,20.20
2018-09-20T21:51:38.948Z,20.10
2018-09-20T21:54:08.193Z,20.10
2018-09-20T21:56:37.374Z,20.00
2018-09-20T21:59:07.123Z,20.00
2018-09-20T22:01:41.699Z,20.00
2018-09-20T22:04:11.084Z,20.00
2018-09-20T22:06:40.304Z,20.00
2018-09-20T22:09:11.522Z,19.90
2018-09-20T22:11:41.456Z,19.90
2018-09-20T22:14:10.715Z,19.80
2018-09-20T22:16:43.522Z,19.80
2018-09-20T22:19:12.477Z,19.80
2018-09-20T22:21:41.452Z,19.80
2018-09-20T22:24:10.751Z,19.70
2018-09-20T22:26:39.952Z,19.70
2018-09-20T22:29:09.166Z,19.60
2018-09-20T22:31:38.447Z,19.60
2018-09-20T22:34:07.852Z,19.60
2018-09-20T22:36:37.212Z,19.50
2018-09-20T22:39:09.722Z,19.50
2018-09-20T22:41:39.090Z,19.40
2018-09-20T22:44:08.521Z,19.40
2018-09-20T22:46:37.826Z,19.40
2018-09-20T22:49:07.022Z,19.40
2018-09-20T22:51:36.213Z,19.30
2018-09-20T22:54:05.715Z,19.30
2018-09-20T22:56:34.740Z,19.30
2018-09-20T22:59:03.787Z,19.30
2018-09-20T23:01:32.975Z,19.30
2018-09-20T23:04:02.099Z,19.30
2018-09-20T23:06:32.511Z,19.20
2018-09-20T23:09:01.837Z,19.20
2018-09-20T23:11:31.202Z,19.20
2018-09-20T23:14:00.498Z,19.10
2018-09-20T23:16:29.733Z,19.10
2018-09-20T23:18:58.974Z,19.10
2018-09-20T23:21:28.077Z,19.10
2018-09-20T23:23:57.481Z,19.10
2018-09-20T23:26:26.700Z,19.00
2018-09-20T23:28:56.015Z,19.00
2018-09-20T23:31:25.125Z,19.00
2018-09-20T23:33:54.939Z,19.00
2018-09-20T23:36:24.206Z,19.00
2018-09-20T23:38:53.500Z,18.90
2018-09-20T23:41:22.637Z,18.90
2018-09-20T23:43:51.914Z,18.80
2018-09-20T23:46:21.002Z,18.80
2018-09-20T23:48:50.183Z,18.80
2018-09-20T23:51:19.456Z,18.80
2018-09-20T23:53:48.860Z,18.80
2018-09-20T23:56:17.918Z,18.70
2018-09-20T23:58:46.948Z,18.70
